Time;durP1;ratioP1;P1;durP2;ratioP2;P2;SDS_P1;SDS_P2;PMS_P1;PMS_P2;Temp;Humidity;BMP_temperature;BMP_pressure;BME280_temperature;BME280_humidity;BME280_pressure;Samples;Min_cycle;Max_cycle;Signal;HPM_P1;HPM_P2
2023/09/21 00:01:28;;;;;;;4.40;3.90;;;;;;;15.49;100.00;100271.05;104553;1261;60077;-50
2023/09/21 00:03:56;;;;;;;4.10;3.20;;;;;;;15.48;100.00;100272.36;104561;1261;72951;-52
2023/09/21 00:06:23;;;;;;;3.30;3.10;;;;;;;15.48;100.00;100271.90;104557;1264;65640;-53
2023/09/21 00:08:52;;;;;;;3.70;3.40;;;;;;;15.48;100.00;100276.20;104638;1260;71954;-52
2023/09/21 00:11:20;;;;;;;6.20;3.80;;;;;;;15.48;100.00;100274.90;104977;1263;62159;-53
2023/09/21 00:13:49;;;;;;;3.80;3.60;;;;;;;15.49;100.00;100275.77;104589;1260;59608;-54
2023/09/21 00:16:18;;;;;;;4.70;4.20;;;;;;;15.49;100.00;100274.52;105084;1260;71832;-53
2023/09/21 00:18:46;;;;;;;5.20;4.10;;;;;;;15.48;100.00;100276.02;104407;1261;67194;-51
2023/09/21 00:21:14;;;;;;;5.40;5.10;;;;;;;15.47;100.00;100278.21;104151;1261;71650;-53
2023/09/21 00:23:43;;;;;;;4.60;4.20;;;;;;;15.47;100.00;100281.87;106385;1263;59986;-52
2023/09/21 00:26:12;;;;;;;5.60;5.10;;;;;;;15.45;100.00;100280.54;105421;1261;59957;-54
2023/09/21 00:28:40;;;;;;;7.60;7.10;;;;;;;15.43;100.00;100279.93;108507;1257;71877;-54
2023/09/21 00:31:08;;;;;;;8.40;7.70;;;;;;;15.40;100.00;100277.59;107434;1263;65795;-53
2023/09/21 00:33:36;;;;;;;10.50;9.60;;;;;;;15.30;100.00;100275.29;104389;1257;72724;-53
2023/09/21 00:36:05;;;;;;;7.20;6.80;;;;;;;15.19;100.00;100278.86;104666;1260;61764;-53
2023/09/21 00:38:33;;;;;;;5.80;5.50;;;;;;;15.08;100.00;100278.77;108563;1257;59159;-53
2023/09/21 00:41:04;;;;;;;7.30;6.80;;;;;;;15.01;100.00;100284.40;107058;1257;73108;-52
2023/09/21 00:43:32;;;;;;;8.80;8.10;;;;;;;14.99;100.00;100285.41;106717;1257;65795;-53
2023/09/21 00:46:01;;;;;;;8.80;8.10;;;;;;;14.99;100.00;100283.08;105361;1261;72116;-51
2023/09/21 00:48:36;;;;;;;9.20;8.40;;;;;;;14.99;100.00;100284.70;106258;1257;62456;-53
2023/09/21 00:51:07;;;;;;;8.10;7.40;;;;;;;15.00;100.00;100281.20;104658;1257;59602;-53
2023/09/21 00:53:36;;;;;;;8.70;7.80;;;;;;;15.02;100.00;100280.90;104394;1257;73096;-53
2023/09/21 00:56:09;;;;;;;8.40;7.60;;;;;;;15.05;100.00;100279.70;104437;1257;65067;-52
2023/09/21 00:58:37;;;;;;;10.30;9.30;;;;;;;15.07;100.00;100280.26;105091;1257;72336;-52
2023/09/21 01:01:05;;;;;;;15.50;12.40;;;;;;;15.08;100.00;100279.31;104403;1264;59818;-52
2023/09/21 01:03:37;;;;;;;13.20;11.80;;;;;;;15.04;100.00;100280.11;106302;1257;60360;-52
2023/09/21 01:06:06;;;;;;;14.10;11.90;;;;;;;14.96;100.00;100281.80;105660;1262;72132;-53
2023/09/21 01:08:34;;;;;;;10.50;9.60;;;;;;;14.93;100.00;100282.71;104556;1258;67517;-53
2023/09/21 01:11:08;;;;;;;8.10;7.30;;;;;;;14.92;100.00;100282.77;104660;1263;70473;-51
2023/09/21 01:13:36;;;;;;;8.80;7.40;;;;;;;14.92;100.00;100286.60;108574;1260;60914;-54
2023/09/21 01:16:04;;;;;;;7.40;6.90;;;;;;;14.91;100.00;100282.81;108568;1257;57936;-53
2023/09/21 01:18:32;;;;;;;8.90;8.00;;;;;;;14.92;100.00;100282.08;108686;1257;72010;-53
2023/09/21 01:21:04;;;;;;;8.10;7.50;;;;;;;14.90;100.00;100283.80;108686;1257;67030;-53
2023/09/21 01:23:43;;;;;;;8.70;7.90;;;;;;;14.87;100.00;100286.88;108648;1257;71975;-53
2023/09/21 01:26:12;;;;;;;8.30;7.60;;;;;;;14.87;100.00;100284.38;108585;1257;60941;-54
2023/09/21 01:28:39;;;;;;;7.80;7.20;;;;;;;14.88;100.00;100290.97;108654;1257;58864;-53
2023/09/21 01:31:11;;;;;;;6.50;6.00;;;;;;;14.89;100.00;100289.44;108724;1257;73150;-53
2023/09/21 01:33:39;;;;;;;7.40;6.90;;;;;;;14.91;100.00;100289.69;108697;1257;67057;-53
2023/09/21 01:36:08;;;;;;;8.60;7.80;;;;;;;14.92;100.00;100283.30;108614;1260;72684;-53
2023/09/21 01:38:37;;;;;;;9.60;8.60;;;;;;;14.93;100.00;100282.02;108662;1257;59944;-54
2023/09/21 01:41:06;;;;;;;10.70;9.70;;;;;;;14.91;100.00;100284.84;108600;1257;60138;-53
2023/09/21 01:43:33;;;;;;;9.30;8.50;;;;;;;14.87;100.00;100284.14;108709;1258;71792;-53
2023/09/21 01:46:01;;;;;;;9.00;8.30;;;;;;;14.85;100.00;100284.30;108586;1260;67417;-53
2023/09/21 01:48:28;;;;;;;7.00;6.50;;;;;;;14.83;100.00;100285.85;108581;1260;71545;-53
2023/09/21 01:50:59;;;;;;;7.60;7.10;;;;;;;14.82;100.00;100287.69;108585;1257;60309;-53
2023/09/21 01:53:27;;;;;;;7.30;6.70;;;;;;;14.81;100.00;100284.69;106266;1257;59522;-52
2023/09/21 01:55:55;;;;;;;6.40;5.90;;;;;;;14.80;100.00;100285.66;104323;1257;73573;-52
2023/09/21 01:58:23;;;;;;;6.90;6.20;;;;;;;14.74;100.00;100288.50;104605;1263;65862;-52
2023/09/21 02:00:51;;;;;;;5.80;5.40;;;;;;;14.69;100.00;100290.95;104311;1263;71327;-52
2023/09/21 02:03:28;;;;;;;5.20;4.70;;;;;;;14.66;100.00;100294.38;105762;1259;60489;-53
2023/09/21 02:05:59;;;;;;;4.70;4.40;;;;;;;14.64;100.00;100297.55;105344;1259;60149;-52
2023/09/21 02:08:27;;;;;;;4.10;3.80;;;;;;;14.64;100.00;100297.23;105066;1258;73101;-52
2023/09/21 02:10:55;;;;;;;4.70;4.30;;;;;;;14.64;100.00;100295.23;104746;1263;65902;-53
2023/09/21 02:13:22;;;;;;;4.50;4.20;;;;;;;14.64;100.00;100295.91;104807;1259;71547;-53
2023/09/21 02:15:51;;;;;;;4.60;4.30;;;;;;;14.64;100.00;100294.73;104569;1263;62190;-53
2023/09/21 02:18:20;;;;;;;4.40;4.10;;;;;;;14.64;100.00;100288.73;104681;1262;59765;-51
2023/09/21 02:20:54;;;;;;;4.00;3.80;;;;;;;14.64;100.00;100288.52;104462;1257;73257;-52
2023/09/21 02:23:23;;;;;;;;;;;;;;;14.65;100.00;100283.25;106281;1260;65876;-53
2023/09/21 02:25:52;;;;;;;3.80;3.50;;;;;;;14.66;100.00;100283.56;104944;1261;71453;-52
2023/09/21 02:28:22;;;;;;;4.50;3.40;;;;;;;14.64;100.00;100279.85;104640;1260;62593;-52
2023/09/21 02:30:50;;;;;;;6.90;4.10;;;;;;;14.62;100.00;100279.63;108581;1258;57911;-53
2023/09/21 02:33:19;;;;;;;5.40;4.90;;;;;;;14.61;100.00;100275.38;107821;1257;73483;-53
2023/09/21 02:35:47;;;;;;;5.20;4.70;;;;;;;14.60;100.00;100280.29;104232;1259;67429;-53
2023/09/21 02:38:16;;;;;;;4.30;4.00;;;;;;;14.60;100.00;100278.87;104463;1260;72710;-52
2023/09/21 02:40:45;;;;;;;4.00;3.60;;;;;;;14.56;100.00;100279.95;104593;1261;61031;-50
2023/09/21 02:43:15;;;;;;;4.10;3.90;;;;;;;14.52;100.00;100279.70;104854;1258;60523;-52
2023/09/21 02:45:45;;;;;;;4.30;3.20;;;;;;;14.48;100.00;100281.85;104608;1258;72680;-52
2023/09/21 02:48:15;;;;;;;3.40;3.20;;;;;;;14.46;100.00;100286.66;105678;1264;65790;-51
2023/09/21 02:50:47;;;;;;;3.10;2.80;;;;;;;14.45;100.00;100287.12;104596;1264;72076;-53
2023/09/21 02:53:14;;;;;;;3.80;3.50;;;;;;;14.44;100.00;100288.06;104508;1260;60749;-53
2023/09/21 02:55:45;;;;;;;3.20;2.90;;;;;;;14.43;100.00;100282.52;104156;1257;60534;-53
2023/09/21 02:58:13;;;;;;;3.30;2.00;;;;;;;14.42;100.00;100280.06;104330;1258;74712;-53
2023/09/21 03:00:45;;;;;;;4.70;2.60;;;;;;;14.43;100.00;100280.34;104810;1257;66910;-52
2023/09/21 03:03:15;;;;;;;3.00;2.80;;;;;;;14.42;100.00;100279.16;105102;1258;73492;-53
2023/09/21 03:05:47;;;;;;;6.10;3.40;;;;;;;14.34;100.00;100282.40;105375;1260;60500;-54
2023/09/21 03:08:16;;;;;;;3.40;3.10;;;;;;;14.26;100.00;100280.73;104735;1264;60587;-53
2023/09/21 03:10:47;;;;;;;4.50;4.10;;;;;;;14.17;100.00;100285.20;104691;1257;72608;-54
2023/09/21 03:13:17;;;;;;;3.00;2.80;;;;;;;14.11;100.00;100283.02;105861;1260;66745;-51
2023/09/21 03:15:47;;;;;;;4.40;3.00;;;;;;;14.09;100.00;100289.60;104426;1259;73220;-52
2023/09/21 03:18:15;;;;;;;3.00;2.60;;;;;;;14.09;100.00;100287.07;105093;1262;61737;-51
2023/09/21 03:20:44;;;;;;;4.90;2.30;;;;;;;14.10;100.00;100291.20;104769;1262;61793;-53
2023/09/21 03:23:13;;;;;;;4.10;2.70;;;;;;;14.09;100.00;100297.73;104390;1257;73493;-52
2023/09/21 03:25:42;;;;;;;2.40;2.20;;;;;;;14.08;100.00;100299.20;104565;1262;69341;-53
2023/09/21 03:28:13;;;;;;;2.00;1.80;;;;;;;14.10;100.00;100303.46;105042;1260;71464;-51
2023/09/21 03:30:41;;;;;;;4.00;2.30;;;;;;;14.09;100.00;100301.14;104589;1261;60705;-51
2023/09/21 03:33:09;;;;;;;2.70;2.50;;;;;;;14.04;100.00;100299.23;104589;1258;60384;-52
2023/09/21 03:35:37;;;;;;;3.00;2.30;;;;;;;14.00;100.00;100299.81;104592;1260;74711;-52
2023/09/21 03:38:12;;;;;;;2.30;1.80;;;;;;;14.01;100.00;100299.08;104580;1258;65590;-52
2023/09/21 03:40:39;;;;;;;;;;;;;;;14.02;100.00;100296.66;104663;1260;71538;-53
2023/09/21 03:43:10;;;;;;;2.60;2.10;;;;;;;14.02;100.00;100298.65;104485;1260;60588;-52
2023/09/21 03:45:38;;;;;;;3.10;2.10;;;;;;;14.02;100.00;100303.00;106951;1257;60469;-52
2023/09/21 03:48:08;;;;;;;1.90;1.80;;;;;;;14.04;100.00;100305.17;104366;1258;72708;-52
2023/09/21 03:50:37;;;;;;;3.00;1.50;;;;;;;14.07;100.00;100305.21;104398;1261;67188;-52
2023/09/21 03:53:05;;;;;;;4.40;1.80;;;;;;;14.04;100.00;100301.77;104233;1257;74744;-52
2023/09/21 03:55:34;;;;;;;2.90;1.80;;;;;;;14.02;100.00;100302.58;104704;1263;60604;-51
2023/09/21 03:58:02;;;;;;;2.80;1.70;;;;;;;14.03;100.00;100300.79;104437;1257;60450;-52
2023/09/21 04:00:30;;;;;;;1.70;1.40;;;;;;;14.03;100.00;100306.30;104480;1257;74855;-51
2023/09/21 04:02:59;;;;;;;1.50;1.40;;;;;;;14.05;100.00;100304.23;104699;1257;65992;-51
2023/09/21 04:05:31;;;;;;;1.50;1.20;;;;;;;14.08;100.00;100305.17;107307;1259;71460;-52
2023/09/21 04:07:58;;;;;;;2.70;1.60;;;;;;;14.11;100.00;100309.55;104406;1263;61748;-52
2023/09/21 04:10:26;;;;;;;1.50;1.40;;;;;;;14.10;100.00;100307.58;108744;1257;59695;-53
2023/09/21 04:12:55;;;;;;;1.90;1.70;;;;;;;14.10;100.00;100308.15;108577;1257;74410;-53
2023/09/21 04:15:24;;;;;;;2.50;1.50;;;;;;;14.10;100.00;100307.23;108447;1258;67408;-53
2023/09/21 04:17:52;;;;;;;1.40;1.30;;;;;;;14.13;100.00;100305.80;108502;1258;73669;-53
2023/09/21 04:20:21;;;;;;;1.70;1.60;;;;;;;14.15;100.00;100307.84;108700;1260;59168;-53
2023/09/21 04:22:49;;;;;;;2.50;2.10;;;;;;;14.18;100.00;100307.72;108685;1257;60270;-52
2023/09/21 04:25:17;;;;;;;2.80;2.60;;;;;;;14.20;100.00;100306.48;108420;1257;72660;-53
2023/09/21 04:27:47;;;;;;;2.60;1.80;;;;;;;14.23;100.00;100310.14;108509;1260;67470;-53
2023/09/21 04:30:21;;;;;;;2.00;1.80;;;;;;;14.25;100.00;100305.34;108657;1258;71450;-52
2023/09/21 04:32:50;;;;;;;4.50;1.60;;;;;;;14.28;100.00;100306.98;108469;1258;61730;-52
2023/09/21 04:35:19;;;;;;;2.90;2.10;;;;;;;14.31;100.00;100310.41;105589;1260;62308;-50
2023/09/21 04:37:47;;;;;;;1.80;1.70;;;;;;;14.32;100.00;100314.12;108661;1260;74259;-52
2023/09/21 04:40:15;;;;;;;2.00;1.90;;;;;;;14.35;100.00;100312.89;108548;1260;65681;-52
2023/09/21 04:42:46;;;;;;;5.40;2.00;;;;;;;14.40;100.00;100317.34;108571;1259;72741;-53
2023/09/21 04:45:21;;;;;;;2.20;2.00;;;;;;;14.47;100.00;100316.27;108621;1260;62667;-52
2023/09/21 04:47:53;;;;;;;1.60;1.50;;;;;;;14.50;100.00;100311.71;108523;1260;60552;-52
2023/09/21 04:50:21;;;;;;;1.60;1.50;;;;;;;14.57;100.00;100313.70;108586;1260;72681;-53
2023/09/21 04:52:49;;;;;;;1.40;1.30;;;;;;;14.65;100.00;100314.49;105211;1259;66248;-51
2023/09/21 04:55:18;;;;;;;2.30;1.50;;;;;;;14.74;100.00;100313.83;105009;1259;72672;-51
2023/09/21 04:57:46;;;;;;;3.30;1.40;;;;;;;14.79;100.00;100311.55;105589;1258;60574;-51
2023/09/21 05:00:15;;;;;;;2.00;1.90;;;;;;;14.82;100.00;100315.69;104705;1263;60534;-52
2023/09/21 05:02:45;;;;;;;1.60;1.40;;;;;;;14.86;100.00;100310.77;104777;1264;74550;-51
2023/09/21 05:05:17;;;;;;;2.10;1.80;;;;;;;14.91;100.00;100308.67;104425;1260;67918;-53
2023/09/21 05:07:45;;;;;;;1.90;1.20;;;;;;;14.95;100.00;100309.89;107849;1259;71447;-52
2023/09/21 05:10:12;;;;;;;2.50;1.30;;;;;;;15.01;100.00;100312.61;104515;1264;62326;-52
2023/09/21 05:12:41;;;;;;;1.70;1.50;;;;;;;15.09;100.00;100314.14;105140;1260;60422;-51
2023/09/21 05:15:11;;;;;;;1.40;1.20;;;;;;;15.18;100.00;100313.61;104467;1259;73912;-51
2023/09/21 05:17:38;;;;;;;1.30;1.20;;;;;;;15.29;100.00;100317.34;104312;1262;65914;-51
2023/09/21 05:20:09;;;;;;;1.50;1.40;;;;;;;15.39;100.00;100316.17;104474;1260;72771;-52
2023/09/21 05:22:40;;;;;;;1.80;1.70;;;;;;;15.50;100.00;100311.69;104670;1260;63907;-51
2023/09/21 05:25:09;;;;;;;2.20;1.50;;;;;;;15.61;100.00;100311.07;104517;1256;60917;-52
2023/09/21 05:27:37;;;;;;;1.80;1.70;;;;;;;15.71;100.00;100315.52;105546;1256;73347;-52
2023/09/21 05:30:05;;;;;;;3.50;3.30;;;;;;;15.80;100.00;100314.43;104420;1256;65532;-52
2023/09/21 05:32:33;;;;;;;4.00;2.30;;;;;;;15.90;100.00;100321.61;108668;1256;72837;-54
2023/09/21 05:35:05;;;;;;;3.20;1.70;;;;;;;15.98;100.00;100317.65;105171;1256;61743;-52
2023/09/21 05:37:34;;;;;;;4.00;1.30;;;;;;;16.06;100.00;100324.60;105557;1257;60617;-52
2023/09/21 05:40:06;;;;;;;2.30;1.80;;;;;;;16.13;100.00;100322.88;104810;1256;73958;-52
2023/09/21 05:42:35;;;;;;;1.50;1.40;;;;;;;16.21;100.00;100324.05;105391;1256;65033;-53
2023/09/21 05:45:03;;;;;;;2.10;2.00;;;;;;;16.28;100.00;100322.85;105627;1256;71678;-54
2023/09/21 05:47:32;;;;;;;2.50;2.20;;;;;;;16.37;100.00;100325.59;104877;1257;60562;-52
2023/09/21 05:50:00;;;;;;;3.90;3.50;;;;;;;16.45;100.00;100327.42;105332;1256;60462;-54
2023/09/21 05:52:30;;;;;;;6.80;3.60;;;;;;;16.54;100.00;100326.59;105199;1260;74344;-54
2023/09/21 05:54:57;;;;;;;4.90;4.50;;;;;;;16.66;100.00;100324.10;104543;1259;68556;-53
2023/09/21 05:57:25;;;;;;;3.30;3.00;;;;;;;16.78;100.00;100321.89;104714;1260;72684;-53
2023/09/21 05:59:53;;;;;;;3.60;3.30;;;;;;;16.90;100.00;100316.73;104856;1256;60660;-52
2023/09/21 06:02:21;;;;;;;7.40;3.00;;;;;;;17.05;100.00;100316.42;105307;1257;60583;-53
2023/09/21 06:04:49;;;;;;;5.50;3.00;;;;;;;17.22;100.00;100319.13;106368;1256;72647;-54
2023/09/21 06:07:16;;;;;;;5.70;2.50;;;;;;;17.39;100.00;100317.95;104603;1256;66659;-53
2023/09/21 06:09:44;;;;;;;4.30;2.20;;;;;;;17.57;100.00;100314.21;104578;1259;72728;-52
2023/09/21 06:12:11;;;;;;;2.70;1.60;;;;;;;17.76;100.00;100313.85;104473;1260;60549;-52
2023/09/21 06:14:39;;;;;;;3.20;1.60;;;;;;;17.93;100.00;100315.92;104641;1259;61328;-53
2023/09/21 06:17:10;;;;;;;3.20;1.70;;;;;;;18.08;100.00;100319.73;104576;1260;74328;-52
2023/09/21 06:19:39;;;;;;;6.40;2.40;;;;;;;18.22;100.00;100322.39;104712;1256;65701;-53
2023/09/21 06:22:07;;;;;;;6.10;1.90;;;;;;;18.36;100.00;100330.13;104724;1257;73222;-53
2023/09/21 06:24:34;;;;;;;1.40;1.30;;;;;;;18.49;100.00;100336.99;104335;1256;62239;-54
2023/09/21 06:27:02;;;;;;;2.00;1.50;;;;;;;18.61;100.00;100337.80;104534;1257;60539;-54
2023/09/21 06:29:29;;;;;;;2.70;1.30;;;;;;;18.73;100.00;100342.36;104310;1256;74343;-54
2023/09/21 06:32:00;;;;;;;3.00;1.90;;;;;;;18.84;100.00;100344.78;108834;1255;67608;-52
2023/09/21 06:34:42;;;;;;;2.50;2.00;;;;;;;18.98;100.00;100345.61;105247;1256;72864;-52
2023/09/21 06:37:12;;;;;;;4.50;2.90;;;;;;;19.09;100.00;100348.84;104567;1257;60575;-52
2023/09/21 06:39:40;;;;;;;5.30;1.20;;;;;;;19.18;100.00;100347.01;108672;1256;60104;-53
2023/09/21 06:42:07;;;;;;;4.20;1.90;;;;;;;19.28;100.00;100349.17;107524;1256;73926;-52
2023/09/21 06:44:35;;;;;;;3.40;1.70;;;;;;;19.36;100.00;100349.83;104517;1260;65524;-52
2023/09/21 06:47:03;;;;;;;4.00;1.70;;;;;;;19.46;100.00;100353.48;104515;1256;72871;-51
2023/09/21 06:49:30;;;;;;;3.70;1.40;;;;;;;19.55;100.00;100352.23;104566;1257;60888;-51
2023/09/21 06:51:59;;;;;;;1.30;1.10;;;;;;;19.64;100.00;100357.76;104835;1257;60505;-53
2023/09/21 06:54:27;;;;;;;6.10;1.60;;;;;;;19.73;100.00;100350.70;104781;1257;73944;-51
2023/09/21 06:57:03;;;;;;;3.60;1.10;;;;;;;19.83;100.00;100353.36;105572;1256;65962;-53
2023/09/21 06:59:34;;;;;;;3.20;2.00;;;;;;;19.93;100.00;100361.69;108626;1256;72727;-53
2023/09/21 07:02:04;;;;;;;6.10;1.00;;;;;;;20.00;100.00;100367.33;106552;1256;61493;-52
2023/09/21 07:04:33;;;;;;;2.40;1.10;;;;;;;20.08;100.00;100374.58;105001;1256;60565;-51
2023/09/21 07:07:05;;;;;;;1.80;0.90;;;;;;;20.16;100.00;100381.44;105570;1256;73918;-52
2023/09/21 07:09:35;;;;;;;1.90;1.10;;;;;;;20.24;100.00;100386.80;105370;1254;67453;-52
2023/09/21 07:12:03;;;;;;;3.30;1.10;;;;;;;20.31;100.00;100389.48;108662;1255;71410;-53
2023/09/21 07:14:32;;;;;;;1.70;1.00;;;;;;;20.38;100.00;100393.22;108699;1259;61769;-53
2023/09/21 07:17:00;;;;;;;1.40;1.00;;;;;;;20.43;100.00;100395.90;108640;1256;60131;-53
2023/09/21 07:19:28;;;;;;;1.50;0.80;;;;;;;20.48;100.00;100395.38;108782;1256;74018;-54
2023/09/21 07:21:56;;;;;;;1.60;0.80;;;;;;;20.53;100.00;100398.06;108648;1256;66236;-53
2023/09/21 07:24:24;;;;;;;1.80;0.90;;;;;;;20.58;100.00;100401.83;108859;1256;72728;-53
2023/09/21 07:26:53;;;;;;;6.90;1.20;;;;;;;20.61;100.00;100401.55;108771;1256;59484;-57
2023/09/21 07:29:23;;;;;;;3.10;0.90;;;;;;;20.65;100.00;100404.52;108830;1255;58837;-53
2023/09/21 07:31:51;;;;;;;1.80;1.30;;;;;;;20.70;100.00;100407.21;109022;1253;73292;-53
2023/09/21 07:34:19;;;;;;;3.70;0.90;;;;;;;20.74;100.00;100413.27;108857;1254;66790;-54
2023/09/21 07:36:46;;;;;;;1.60;1.20;;;;;;;20.78;100.00;100412.20;108818;1253;72768;-52
2023/09/21 07:39:14;;;;;;;4.40;1.00;;;;;;;20.85;100.00;100413.35;108912;1254;60487;-54
2023/09/21 07:41:42;;;;;;;3.60;1.00;;;;;;;20.92;100.00;100414.60;108857;1254;60518;-54
2023/09/21 07:44:10;;;;;;;1.70;1.00;;;;;;;20.99;100.00;100419.29;108879;1254;73927;-54
2023/09/21 07:46:37;;;;;;;3.70;1.00;;;;;;;21.03;100.00;100420.62;108933;1254;66973;-53
2023/09/21 07:49:04;;;;;;;3.30;1.20;;;;;;;21.08;100.00;100421.50;108231;1254;73542;-53
2023/09/21 07:51:32;;;;;;;1.20;1.10;;;;;;;21.14;100.00;100423.14;104528;1255;60566;-54
2023/09/21 07:54:00;;;;;;;1.50;1.10;;;;;;;21.21;100.00;100424.48;104668;1254;60505;-52
2023/09/21 07:56:29;;;;;;;4.00;1.10;;;;;;;21.25;100.00;100422.30;105242;1254;73797;-53
2023/09/21 07:58:57;;;;;;;2.80;2.00;;;;;;;21.24;100.00;100427.88;105768;1259;66999;-52
2023/09/21 08:01:26;;;;;;;1.50;1.40;;;;;;;21.23;100.00;100430.73;104360;1257;72797;-52
2023/09/21 08:03:54;;;;;;;1.70;1.50;;;;;;;21.22;100.00;100433.84;105354;1255;60450;-54
2023/09/21 08:06:22;;;;;;;3.40;1.00;;;;;;;21.22;100.00;100435.16;104532;1257;60501;-54
2023/09/21 08:08:52;;;;;;;1.50;1.10;;;;;;;21.25;100.00;100434.55;104533;1259;73861;-53
2023/09/21 08:11:19;;;;;;;3.30;1.00;;;;;;;21.27;100.00;100435.09;106814;1254;66918;-53
2023/09/21 08:13:46;;;;;;;3.10;1.00;;;;;;;21.29;100.00;100434.58;104639;1254;72062;-54
2023/09/21 08:16:14;;;;;;;2.90;1.60;;;;;;;21.35;100.00;100435.52;104358;1254;62848;-54
2023/09/21 08:18:42;;;;;;;5.50;1.10;;;;;;;21.44;100.00;100432.23;104670;1254;60738;-53
2023/09/21 08:21:10;;;;;;;4.00;0.90;;;;;;;21.56;100.00;100438.36;105362;1256;72686;-52
2023/09/21 08:23:40;;;;;;;3.90;1.30;;;;;;;21.66;100.00;100441.15;104520;1256;67487;-53
2023/09/21 08:26:07;;;;;;;1.00;0.90;;;;;;;21.74;100.00;100438.25;104732;1254;72793;-53
2023/09/21 08:28:34;;;;;;;3.20;0.90;;;;;;;21.79;100.00;100441.83;104770;1261;60585;-54
2023/09/21 08:31:02;;;;;;;3.60;0.90;;;;;;;21.79;100.00;100445.15;104588;1257;60470;-54
2023/09/21 08:33:29;;;;;;;7.20;1.60;;;;;;;21.79;100.00;100442.41;104600;1254;72683;-52
2023/09/21 08:35:57;;;;;;;25.30;2.10;;;;;;;21.81;100.00;100449.79;104612;1253;65490;-52
2023/09/21 08:38:25;;;;;;;2.30;0.90;;;;;;;21.86;100.00;100450.05;104845;1259;72544;-51
2023/09/21 08:40:53;;;;;;;0.80;0.80;;;;;;;21.94;100.00;100453.64;105359;1254;60577;-51
2023/09/21 08:43:24;;;;;;;2.80;0.90;;;;;;;21.98;100.00;100459.51;104981;1256;60453;-52
2023/09/21 08:45:52;;;;;;;1.10;0.90;;;;;;;22.03;100.00;100460.58;104823;1253;72619;-52
2023/09/21 08:48:20;;;;;;;3.10;1.20;;;;;;;22.07;100.00;100464.61;104643;1260;65861;-53
2023/09/21 08:50:52;;;;;;;2.20;0.90;;;;;;;22.08;100.00;100468.39;104979;1259;72689;-52
2023/09/21 08:53:20;;;;;;;1.00;0.90;;;;;;;22.07;100.00;100471.33;104928;1254;60435;-54
2023/09/21 08:55:52;;;;;;;4.00;1.10;;;;;;;22.08;100.00;100474.59;104876;1259;60534;-54
2023/09/21 08:58:23;;;;;;;6.00;1.40;;;;;;;22.07;100.00;100477.05;104665;1258;74470;-52
2023/09/21 09:00:56;;;;;;;2.30;1.60;;;;;;;22.04;100.00;100476.53;108548;1253;65821;-51
2023/09/21 09:03:27;;;;;;;1.90;1.10;;;;;;;22.04;100.00;100470.65;104911;1259;71937;-52
2023/09/21 09:05:58;;;;;;;2.10;1.50;;;;;;;22.05;100.00;100476.43;105041;1255;60531;-52
2023/09/21 09:08:25;;;;;;;2.30;1.30;;;;;;;22.05;100.00;100476.26;105002;1254;60716;-55
2023/09/21 09:10:53;;;;;;;1.80;1.30;;;;;;;22.03;100.00;100481.55;104922;1253;72628;-54
2023/09/21 09:13:22;;;;;;;1.30;1.20;;;;;;;22.00;100.00;100486.02;104974;1257;66065;-52
2023/09/21 09:15:49;;;;;;;2.60;1.10;;;;;;;21.98;100.00;100485.61;105017;1257;71462;-52
2023/09/21 09:18:17;;;;;;;3.40;1.00;;;;;;;21.99;100.00;100488.86;104854;1259;60562;-52
2023/09/21 09:20:45;;;;;;;7.10;1.20;;;;;;;22.01;100.00;100489.42;104911;1254;60562;-52
2023/09/21 09:23:13;;;;;;;2.60;0.90;;;;;;;22.06;100.00;100494.05;104691;1254;72567;-54
2023/09/21 09:25:40;;;;;;;5.10;1.30;;;;;;;22.14;100.00;100495.95;104491;1253;65910;-52
2023/09/21 09:28:08;;;;;;;1.20;0.90;;;;;;;22.23;100.00;100497.22;104574;1254;70468;-53
2023/09/21 09:30:36;;;;;;;1.00;0.90;;;;;;;22.33;100.00;100499.67;108704;1254;59556;-52
2023/09/21 09:33:09;;;;;;;4.50;1.50;;;;;;;22.41;100.00;100499.91;108908;1259;59531;-55
2023/09/21 09:35:41;;;;;;;3.20;1.20;;;;;;;22.46;100.00;100503.08;105281;1253;72719;-52
2023/09/21 09:38:11;;;;;;;2.50;1.10;;;;;;;22.50;100.00;100508.77;104831;1256;66918;-50
2023/09/21 09:40:39;;;;;;;1.70;1.10;;;;;;;22.53;100.00;100506.50;104780;1254;71722;-52
2023/09/21 09:43:06;;;;;;;4.90;1.10;;;;;;;22.56;100.00;100510.03;104736;1253;60549;-54
2023/09/21 09:45:37;;;;;;;1.00;0.90;;;;;;;22.59;100.00;100504.11;108924;1253;59946;-52
2023/09/21 09:48:11;;;;;;;3.80;1.40;;;;;;;22.62;100.00;100507.32;104750;1254;72646;-54
2023/09/21 09:50:41;;;;;;;1.90;1.20;;;;;;;22.64;100.00;100502.59;105854;1253;66229;-51
2023/09/21 09:53:13;;;;;;;2.00;0.90;;;;;;;22.65;100.00;100504.90;104719;1253;71448;-51
2023/09/21 09:55:42;;;;;;;1.30;1.10;;;;;;;22.62;100.00;100508.05;104561;1259;61023;-53
2023/09/21 09:58:10;;;;;;;2.40;0.90;;;;;;;22.57;100.00;100508.14;108588;1253;60141;-55
2023/09/21 10:00:44;;;;;;;29.00;5.10;;;;;;;22.53;100.00;100508.17;108828;1253;76172;-54
2023/09/21 10:03:13;;;;;;;1.90;1.10;;;;;;;22.49;100.00;100507.41;108859;1253;66068;-55
2023/09/21 10:05:42;;;;;;;20.40;3.90;;;;;;;22.48;100.00;100510.40;108712;1259;74614;-54
2023/09/21 10:08:10;;;;;;;4.00;1.20;;;;;;;22.50;100.00;100508.98;108668;1254;59392;-53
2023/09/21 10:10:47;;;;;;;54.80;10.10;;;;;;;22.52;100.00;100505.88;108717;1253;60537;-52
2023/09/21 10:13:16;;;;;;;41.40;6.20;;;;;;;22.56;100.00;100504.08;108756;1257;74371;-53
2023/09/21 10:15:48;;;;;;;5.30;1.90;;;;;;;22.56;100.00;100503.10;108818;1253;67061;-53
2023/09/21 10:18:33;;;;;;;4.80;1.50;;;;;;;22.60;100.00;100500.95;108790;1255;73123;-53
2023/09/21 10:21:19;;;;;;;2.00;1.20;;;;;;;22.67;100.00;100501.69;108825;1257;59013;-53
2023/09/21 10:24:16;;;;;;;4.30;1.40;;;;;;;22.72;100.00;100505.22;108801;1255;58948;-53
2023/09/21 10:26:46;;;;;;;1.50;1.40;;;;;;;22.79;100.00;100506.10;108844;1253;72669;-53
2023/09/21 10:29:14;;;;;;;2.60;1.60;;;;;;;22.84;100.00;100504.76;109027;1254;65979;-53
2023/09/21 10:31:45;;;;;;;3.70;1.90;;;;;;;22.89;100.00;100505.06;109124;1253;72779;-53
2023/09/21 10:34:13;;;;;;;3.40;1.60;;;;;;;22.92;100.00;100505.64;108941;1256;60577;-54
2023/09/21 10:36:42;;;;;;;3.40;1.40;;;;;;;22.95;100.00;100507.41;109101;1252;60085;-53
2023/09/21 10:39:10;;;;;;;2.00;1.20;;;;;;;23.00;100.00;100508.45;109116;1254;73903;-54
2023/09/21 10:41:43;;;;;;;3.00;1.30;;;;;;;23.08;100.00;100503.94;108733;1254;267412;-54
2023/09/21 10:46:03;;;;;;;1.60;1.30;;;;;;;23.20;100.00;100605.73;101705;1292;601328;-51
2023/09/21 10:48:31;;;;;;;1.90;1.70;;;;;;;23.26;100.00;100592.91;105124;1266;60603;-52
2023/09/21 10:50:58;;;;;;;2.40;1.40;;;;;;;23.32;100.00;100578.45;103920;1270;59340;-52
2023/09/21 10:53:26;;;;;;;2.40;1.40;;;;;;;23.39;100.00;100570.13;103912;1270;72334;-52
2023/09/21 10:55:53;;;;;;;6.80;1.40;;;;;;;23.47;100.00;100562.86;103819;1264;65769;-52
2023/09/21 10:58:24;;;;;;;6.10;1.90;;;;;;;23.52;100.00;100556.59;104116;1260;188511;-51
2023/09/21 11:00:52;;;;;;;2.10;1.10;;;;;;;23.53;100.00;100559.59;104361;1259;59402;-51
2023/09/21 11:03:20;;;;;;;7.60;1.50;;;;;;;23.54;100.00;100554.79;104189;1266;59753;-53
2023/09/21 11:05:47;;;;;;;6.20;3.00;;;;;;;23.52;100.00;100553.48;104811;1251;72300;-51
2023/09/21 11:08:15;;;;;;;1.70;1.50;;;;;;;23.50;100.00;100547.58;104641;1260;65808;-54
2023/09/21 11:10:43;;;;;;;2.80;1.60;;;;;;;23.49;100.00;100545.30;105797;1257;74900;-54
2023/09/21 11:13:10;;;;;;;4.00;2.30;;;;;;;23.47;100.00;100539.80;104752;1251;60538;-51
2023/09/21 11:15:38;;;;;;;11.20;2.20;;;;;;;23.46;100.00;100540.98;104736;1251;62200;-54
2023/09/21 11:18:06;;;;;;;12.20;2.90;;;;;;;23.44;100.00;100539.16;104777;1251;71800;-53
2023/09/21 11:20:34;;;;;;;7.00;3.40;;;;;;;23.41;100.00;100541.03;105008;1251;66100;-54